createdAt,value
2019-02-27T00:00:44.672Z,27.57
2019-02-27T00:03:12.370Z,29.20
2019-02-27T00:05:41.839Z,28.47
2019-02-27T00:08:09.753Z,24.83
2019-02-27T00:10:39.252Z,29.60
2019-02-27T00:13:06.496Z,28.40
2019-02-27T00:15:37.759Z,24.67
2019-02-27T00:18:03.255Z,29.20
2019-02-27T00:20:31.145Z,27.30
2019-02-27T00:22:58.599Z,33.00
2019-02-27T00:25:26.093Z,24.33
2019-02-27T00:27:53.940Z,24.90
2019-02-27T00:30:21.502Z,25.83
2019-02-27T00:32:51.388Z,26.90
2019-02-27T00:35:18.314Z,34.10
2019-02-27T00:37:45.814Z,31.87
2019-02-27T00:40:13.310Z,30.43
2019-02-27T00:42:40.763Z,30.07
2019-02-27T00:45:08.324Z,23.37
2019-02-27T00:47:35.893Z,26.13
2019-02-27T00:50:06.568Z,23.63
2019-02-27T00:52:33.274Z,23.80
2019-02-27T00:55:04.230Z,25.57
2019-02-27T00:57:30.121Z,15.80
2019-02-27T00:59:57.617Z,20.43
2019-02-27T01:02:25.409Z,16.53
2019-02-27T01:04:52.974Z,20.73
2019-02-27T01:07:21.328Z,22.37
2019-02-27T01:09:50.007Z,18.23
2019-02-27T01:12:17.511Z,19.63
2019-02-27T01:14:45.035Z,23.83
2019-02-27T01:17:12.473Z,21.30
2019-02-27T01:19:39.974Z,24.37
2019-02-27T01:22:07.567Z,20.73
2019-02-27T01:24:35.056Z,18.10
2019-02-27T01:27:04.638Z,22.73
2019-02-27T01:29:31.792Z,24.50
2019-02-27T01:31:59.327Z,23.73
2019-02-27T01:34:26.827Z,19.60
2019-02-27T01:36:54.903Z,24.73
2019-02-27T01:39:23.612Z,17.37
2019-02-27T01:41:51.178Z,19.57
2019-02-27T01:44:19.117Z,20.97
2019-02-27T01:46:46.642Z,23.53
2019-02-27T01:49:16.097Z,22.60
2019-02-27T01:51:43.452Z,22.43
2019-02-27T01:54:12.219Z,23.23
2019-02-27T01:56:42.444Z,17.23
2019-02-27T01:59:10.189Z,21.07
2019-02-27T02:01:37.863Z,25.30
2019-02-27T02:04:05.337Z,19.63
2019-02-27T02:06:33.023Z,24.47
2019-02-27T02:09:32.704Z,17.83
2019-02-27T02:12:01.527Z,22.53
2019-02-27T02:15:01.361Z,16.57
2019-02-27T02:18:06.811Z,22.27
2019-02-27T02:20:49.350Z,18.10
2019-02-27T02:23:44.922Z,24.27
2019-02-27T02:27:03.135Z,18.80
2019-02-27T02:30:05.380Z,20.83
2019-02-27T02:32:58.531Z,17.70
2019-02-27T02:35:39.389Z,19.37
2019-02-27T02:39:03.312Z,20.27
2019-02-27T02:41:56.882Z,20.03
2019-02-27T02:45:04.624Z,17.23
2019-02-27T02:48:09.598Z,18.33
2019-02-27T02:50:53.916Z,19.60
2019-02-27T02:53:48.745Z,20.03
2019-02-27T02:57:13.237Z,22.60
2019-02-27T02:59:49.492Z,18.50
2019-02-27T03:02:24.775Z,17.23
2019-02-27T03:05:30.747Z,19.80
2019-02-27T03:08:10.321Z,18.13
2019-02-27T03:11:02.605Z,20.77
2019-02-27T03:14:17.645Z,19.20
2019-02-27T03:17:01.072Z,17.73
2019-02-27T03:19:44.157Z,18.53
2019-02-27T03:22:52.853Z,21.90
2019-02-27T03:26:05.225Z,22.23
2019-02-27T03:28:57.020Z,16.07
2019-02-27T03:31:38.998Z,16.50
2019-02-27T03:34:30.806Z,22.23
2019-02-27T03:37:29.639Z,20.83
2019-02-27T03:40:29.029Z,17.17
2019-02-27T03:43:29.037Z,18.83
2019-02-27T03:46:41.916Z,15.47
2019-02-27T03:49:54.178Z,18.03
2019-02-27T03:53:11.085Z,16.43
2019-02-27T03:56:26.648Z,17.40
2019-02-27T03:59:42.099Z,19.33
2019-02-27T04:02:41.875Z,19.83
2019-02-27T04:05:23.657Z,25.23
2019-02-27T04:08:13.709Z,19.10
2019-02-27T04:10:41.188Z,20.07
2019-02-27T04:13:09.952Z,22.67
2019-02-27T04:15:37.470Z,17.40
2019-02-27T04:18:03.893Z,27.17
2019-02-27T04:20:31.889Z,20.33
2019-02-27T04:22:59.437Z,20.20
2019-02-27T04:25:31.039Z,17.50
2019-02-27T04:27:56.360Z,18.97
2019-02-27T04:30:23.920Z,14.47
2019-02-27T04:32:51.472Z,15.80
2019-02-27T04:35:18.949Z,19.50
2019-02-27T04:37:46.447Z,19.80
2019-02-27T04:40:14.012Z,23.63
2019-02-27T04:42:41.491Z,18.00
2019-02-27T04:45:09.873Z,18.83
2019-02-27T04:47:38.538Z,20.43
2019-02-27T04:50:06.017Z,18.93
2019-02-27T04:52:33.513Z,20.70
2019-02-27T04:55:01.054Z,15.00
2019-02-27T04:57:30.803Z,14.93
2019-02-27T04:59:57.864Z,18.27
2019-02-27T05:02:25.650Z,12.77
2019-02-27T05:04:53.464Z,12.00
2019-02-27T05:07:20.966Z,15.20
2019-02-27T05:09:48.756Z,13.17
2019-02-27T05:12:16.515Z,19.83
2019-02-27T05:14:44.000Z,19.97
2019-02-27T05:17:11.462Z,16.23
2019-02-27T05:19:38.937Z,16.50
2019-02-27T05:22:06.499Z,21.00
2019-02-27T05:24:33.996Z,14.97
2019-02-27T05:27:01.534Z,20.77
2019-02-27T05:29:29.063Z,19.20
2019-02-27T05:31:56.578Z,17.13
2019-02-27T05:34:37.577Z,23.07
2019-02-27T05:37:05.927Z,17.93
2019-02-27T05:39:33.881Z,20.47
2019-02-27T05:42:06.151Z,24.83
2019-02-27T05:44:30.860Z,23.87
2019-02-27T05:46:58.419Z,18.53
2019-02-27T05:49:27.357Z,21.17
2019-02-27T05:51:55.335Z,19.00
2019-02-27T05:54:22.887Z,21.40
2019-02-27T05:56:50.422Z,17.50
2019-02-27T05:59:17.909Z,14.63
2019-02-27T06:01:45.401Z,18.97
2019-02-27T06:04:13.136Z,18.67
2019-02-27T06:06:45.029Z,21.77
2019-02-27T06:09:10.395Z,18.07
2019-02-27T06:11:38.440Z,23.23
2019-02-27T06:14:05.938Z,19.63
2019-02-27T06:16:37.069Z,23.80
2019-02-27T06:19:02.865Z,19.80
2019-02-27T06:21:30.326Z,19.13
2019-02-27T06:23:57.970Z,24.80
2019-02-27T06:26:25.477Z,23.47
2019-02-27T06:28:52.914Z,29.83
2019-02-27T06:31:20.375Z,27.97
2019-02-27T06:33:47.827Z,23.83
2019-02-27T06:36:15.359Z,32.57
2019-02-27T06:38:43.165Z,27.30
2019-02-27T06:41:15.301Z,31.10
2019-02-27T06:43:39.871Z,26.30
2019-02-27T06:46:07.375Z,26.80
2019-02-27T06:48:34.840Z,19.73
2019-02-27T06:51:02.298Z,31.23
2019-02-27T06:53:29.779Z,22.10
2019-02-27T06:55:57.229Z,30.20
2019-02-27T06:58:24.723Z,29.70
2019-02-27T07:00:52.166Z,33.80
2019-02-27T07:03:19.676Z,29.53
2019-02-27T07:05:48.139Z,30.10
2019-02-27T07:08:16.318Z,37.87
2019-02-27T07:10:43.803Z,29.57
2019-02-27T07:13:11.246Z,24.33
2019-02-27T07:15:38.710Z,36.50
2019-02-27T07:18:06.751Z,38.20
2019-02-27T07:20:34.334Z,31.97
2019-02-27T07:23:01.806Z,35.17
2019-02-27T07:25:29.303Z,26.63
2019-02-27T07:27:56.799Z,27.17
2019-02-27T07:30:24.267Z,28.73
2019-02-27T07:32:51.941Z,28.93
2019-02-27T07:35:19.414Z,25.17
2019-02-27T07:37:48.077Z,29.60
2019-02-27T07:40:15.682Z,23.77
2019-02-27T07:42:43.147Z,26.07
2019-02-27T07:45:12.995Z,33.40
2019-02-27T07:47:40.456Z,25.00
2019-02-27T07:50:09.162Z,29.67
2019-02-27T07:52:36.667Z,27.67
2019-02-27T07:55:15.515Z,20.97
2019-02-27T07:57:33.688Z,20.47
2019-02-27T08:00:01.101Z,26.87
2019-02-27T08:02:28.545Z,22.93
2019-02-27T08:04:56.025Z,27.27
2019-02-27T08:07:23.489Z,33.40
2019-02-27T08:09:50.934Z,28.63
2019-02-27T08:12:19.902Z,22.33
2019-02-27T08:14:47.699Z,23.47
2019-02-27T08:17:17.899Z,28.03
2019-02-27T08:19:45.302Z,25.57
2019-02-27T08:22:13.611Z,30.33
2019-02-27T08:24:41.119Z,23.37
2019-02-27T08:27:09.699Z,33.17
2019-02-27T08:29:37.802Z,20.83
2019-02-27T08:32:05.570Z,24.97
2019-02-27T08:34:33.218Z,31.03
2019-02-27T08:37:00.671Z,19.97
2019-02-27T08:39:28.144Z,23.30
2019-02-27T08:41:55.603Z,22.90
2019-02-27T08:44:23.060Z,21.03
2019-02-27T08:46:50.535Z,17.40
2019-02-27T08:49:17.973Z,19.47
2019-02-27T08:51:45.451Z,23.53
2019-02-27T08:54:12.967Z,19.33
2019-02-27T08:56:40.424Z,20.77
2019-02-27T08:59:08.078Z,24.83
2019-02-27T09:01:37.703Z,20.53
2019-02-27T09:04:06.190Z,21.37
2019-02-27T09:06:33.810Z,20.85
2019-02-27T09:09:01.239Z,28.73
2019-02-27T09:11:28.696Z,19.87
2019-02-27T09:13:56.168Z,27.65
2019-02-27T09:16:26.026Z,21.33
2019-02-27T09:18:52.886Z,18.73
2019-02-27T09:21:20.352Z,19.57
2019-02-27T09:23:47.810Z,28.47
2019-02-27T09:26:15.309Z,24.18
2019-02-27T09:28:44.560Z,21.20
2019-02-27T09:31:12.223Z,21.20
2019-02-27T09:33:39.828Z,27.00
2019-02-27T09:36:07.950Z,29.10
2019-02-27T09:38:36.596Z,22.98
2019-02-27T09:41:04.070Z,22.25
2019-02-27T09:43:32.338Z,16.35
2019-02-27T09:46:00.120Z,28.98
2019-02-27T09:48:27.597Z,24.12
2019-02-27T09:50:56.926Z,17.80
2019-02-27T09:53:24.337Z,26.52
2019-02-27T09:55:54.390Z,25.48
2019-02-27T09:58:22.657Z,22.90
2019-02-27T10:00:53.222Z,28.52
2019-02-27T10:03:21.636Z,28.38
2019-02-27T10:05:49.146Z,20.60
2019-02-27T10:08:16.757Z,24.37
2019-02-27T10:10:45.845Z,25.25
2019-02-27T10:13:13.480Z,27.42
2019-02-27T10:15:41.349Z,23.02
2019-02-27T10:18:08.791Z,21.48
2019-02-27T10:20:37.266Z,24.57
2019-02-27T10:23:05.567Z,27.82
2019-02-27T10:25:33.001Z,25.27
2019-02-27T10:28:04.354Z,27.27
2019-02-27T10:30:29.837Z,26.07
2019-02-27T10:32:57.279Z,31.23
2019-02-27T10:35:26.836Z,24.95
2019-02-27T10:37:54.529Z,27.67
2019-02-27T10:40:22.050Z,26.95
2019-02-27T10:42:50.346Z,27.85
2019-02-27T10:45:18.842Z,23.42
2019-02-27T10:47:46.343Z,24.55
2019-02-27T10:50:14.159Z,28.40
2019-02-27T10:52:41.707Z,28.15
2019-02-27T10:55:13.906Z,24.47
2019-02-27T10:57:39.701Z,26.85
2019-02-27T11:00:24.886Z,27.07
2019-02-27T11:02:52.342Z,26.82
2019-02-27T11:05:19.333Z,29.27
2019-02-27T11:07:46.836Z,34.48
2019-02-27T11:10:14.701Z,33.18
2019-02-27T11:12:42.176Z,28.70
2019-02-27T11:15:11.003Z,31.10
2019-02-27T11:17:38.513Z,27.80
2019-02-27T11:20:06.200Z,22.10
2019-02-27T11:22:33.666Z,36.30
2019-02-27T11:25:01.148Z,29.87
2019-02-27T11:27:28.579Z,27.42
2019-02-27T11:29:59.645Z,27.85
2019-02-27T11:32:25.338Z,27.82
2019-02-27T11:34:52.803Z,26.12
2019-02-27T11:37:20.331Z,26.15
2019-02-27T11:39:47.843Z,34.05
2019-02-27T11:42:15.367Z,30.48
2019-02-27T11:44:42.968Z,27.65
2019-02-27T11:47:11.380Z,28.92
2019-02-27T11:49:39.463Z,32.90
2019-02-27T11:52:06.918Z,29.27
2019-02-27T11:54:34.732Z,28.62
2019-02-27T11:57:02.354Z,25.77
2019-02-27T11:59:29.899Z,26.65
2019-02-27T12:01:57.390Z,32.23
2019-02-27T12:04:24.857Z,29.75
2019-02-27T12:06:52.372Z,27.30
2019-02-27T12:09:19.979Z,28.40
2019-02-27T12:11:48.692Z,31.52
2019-02-27T12:14:16.762Z,29.48
2019-02-27T12:16:44.289Z,25.35
2019-02-27T12:19:12.335Z,29.92
2019-02-27T12:21:39.836Z,24.72
2019-02-27T12:24:07.393Z,23.75
2019-02-27T12:26:37.508Z,29.50
2019-02-27T12:29:05.533Z,25.20
2019-02-27T12:31:32.996Z,24.27
2019-02-27T12:34:06.579Z,27.13
2019-02-27T12:36:34.456Z,22.48
2019-02-27T12:39:03.196Z,29.63
2019-02-27T12:41:32.537Z,25.35
2019-02-27T12:43:59.988Z,27.73
2019-02-27T12:46:27.500Z,22.48
2019-02-27T12:48:54.998Z,25.95
2019-02-27T12:51:22.862Z,22.17
2019-02-27T12:54:09.878Z,26.45
2019-02-27T12:56:41.569Z,21.60
2019-02-27T12:59:06.995Z,21.57
2019-02-27T13:01:34.973Z,18.80
2019-02-27T13:04:02.515Z,23.02
2019-02-27T13:06:34.328Z,20.68
2019-02-27T13:08:59.348Z,19.20
2019-02-27T13:11:26.863Z,19.15
2019-02-27T13:13:54.424Z,18.85
2019-02-27T13:16:22.873Z,13.53
2019-02-27T13:18:50.335Z,21.50
2019-02-27T13:21:20.688Z,19.10
2019-02-27T13:23:47.129Z,22.00
2019-02-27T13:26:14.636Z,18.17
2019-02-27T13:28:42.149Z,11.03
2019-02-27T13:31:09.696Z,17.92
2019-02-27T13:33:38.897Z,17.15
2019-02-27T13:36:06.554Z,15.05
2019-02-27T13:38:54.269Z,15.18
2019-02-27T13:41:23.641Z,20.43
2019-02-27T13:43:51.133Z,18.25
2019-02-27T13:46:20.216Z,15.55
2019-02-27T13:48:47.985Z,13.50
2019-02-27T13:51:15.500Z,11.40
2019-02-27T13:53:44.790Z,14.40
2019-02-27T13:56:12.514Z,15.40
2019-02-27T13:58:40.051Z,19.92
2019-02-27T14:01:07.641Z,17.07
2019-02-27T14:03:35.667Z,19.73
2019-02-27T14:06:03.207Z,18.02
2019-02-27T14:08:32.145Z,17.67
2019-02-27T14:11:19.513Z,16.82
2019-02-27T14:13:47.023Z,20.70
2019-02-27T14:16:14.549Z,17.95
2019-02-27T14:18:42.069Z,18.50
2019-02-27T14:21:09.900Z,25.27
2019-02-27T14:23:37.421Z,22.52
2019-02-27T14:26:06.338Z,17.15
2019-02-27T14:28:35.170Z,16.52
2019-02-27T14:31:02.637Z,20.85
2019-02-27T14:33:30.167Z,18.65
2019-02-27T14:35:57.671Z,15.85
2019-02-27T14:38:25.199Z,17.35
2019-02-27T14:40:52.761Z,13.93
2019-02-27T14:43:20.289Z,13.98
2019-02-27T14:45:47.817Z,14.78
2019-02-27T14:48:18.131Z,11.75
2019-02-27T14:50:45.711Z,9.63
2019-02-27T14:53:13.193Z,11.53
2019-02-27T14:55:40.667Z,15.55
2019-02-27T14:58:08.530Z,12.23
2019-02-27T15:00:39.573Z,14.45
2019-02-27T15:03:05.482Z,15.68
2019-02-27T15:05:33.198Z,16.35
2019-02-27T15:08:01.125Z,21.10
2019-02-27T15:10:28.634Z,12.73
2019-02-27T15:12:56.227Z,14.40
2019-02-27T15:15:25.742Z,9.80
2019-02-27T15:17:54.270Z,13.88
2019-02-27T15:20:22.540Z,10.63
2019-02-27T15:22:52.548Z,11.22
2019-02-27T15:25:19.465Z,12.85
2019-02-27T15:27:47.241Z,12.03
2019-02-27T15:30:16.851Z,12.95
2019-02-27T15:32:44.428Z,10.48
2019-02-27T15:35:12.163Z,12.53
2019-02-27T15:37:39.859Z,11.73
2019-02-27T15:40:08.753Z,11.15
2019-02-27T15:42:36.254Z,12.47
2019-02-27T15:45:09.178Z,12.90
2019-02-27T15:47:33.886Z,9.68
2019-02-27T15:50:02.687Z,9.68
2019-02-27T15:52:30.314Z,9.10
2019-02-27T15:54:59.158Z,8.73
2019-02-27T15:57:27.107Z,11.80
2019-02-27T15:59:54.606Z,13.05
2019-02-27T16:02:22.172Z,14.80
2019-02-27T16:04:52.228Z,13.08
2019-02-27T16:07:19.010Z,13.70
2019-02-27T16:09:47.303Z,9.93
2019-02-27T16:12:14.911Z,12.20
2019-02-27T16:14:42.883Z,15.15
2019-02-27T16:17:11.168Z,16.65
2019-02-27T16:19:38.686Z,13.00
2019-02-27T16:22:06.151Z,15.08
2019-02-27T16:24:33.644Z,19.25
2019-02-27T16:27:01.988Z,13.78
2019-02-27T16:29:29.698Z,13.05
2019-02-27T16:31:57.190Z,16.07
2019-02-27T16:34:24.739Z,14.43
2019-02-27T16:36:52.278Z,16.67
2019-02-27T16:39:19.787Z,20.15
2019-02-27T16:41:47.294Z,16.07
2019-02-27T16:44:14.803Z,18.73
2019-02-27T16:46:44.594Z,22.25
2019-02-27T16:49:11.655Z,21.15
2019-02-27T16:51:39.215Z,16.55
2019-02-27T16:54:06.664Z,19.45
2019-02-27T16:56:34.166Z,18.20
2019-02-27T16:59:07.686Z,25.55
2019-02-27T17:01:31.184Z,28.20
2019-02-27T17:04:00.432Z,21.62
2019-02-27T17:06:28.233Z,21.50
2019-02-27T17:08:56.058Z,24.57
2019-02-27T17:11:23.551Z,23.77
2019-02-27T17:13:50.995Z,23.40
2019-02-27T17:16:18.764Z,25.23
2019-02-27T17:18:46.521Z,21.60
2019-02-27T17:21:14.105Z,26.23
2019-02-27T17:23:45.289Z,31.82
2019-02-27T17:26:10.903Z,25.65
2019-02-27T17:28:38.441Z,25.17
2019-02-27T17:31:11.777Z,24.47
2019-02-27T17:33:37.952Z,33.88
2019-02-27T17:36:11.742Z,20.95
2019-02-27T17:38:39.227Z,24.98
2019-02-27T17:41:08.893Z,22.52
2019-02-27T17:43:36.296Z,25.88
2019-02-27T17:46:03.803Z,38.00
2019-02-27T17:48:31.262Z,31.05
2019-02-27T17:50:58.795Z,32.38
2019-02-27T17:53:26.375Z,36.33
2019-02-27T17:55:53.933Z,30.23
2019-02-27T17:58:21.679Z,33.50
2019-02-27T18:00:51.488Z,35.20
2019-02-27T18:03:19.073Z,30.32
2019-02-27T18:05:46.609Z,26.42
2019-02-27T18:08:16.394Z,30.10
2019-02-27T18:10:43.502Z,36.68
2019-02-27T18:13:10.987Z,31.68
2019-02-27T18:15:38.776Z,27.05
2019-02-27T18:18:07.514Z,28.12
2019-02-27T18:20:35.890Z,23.83
2019-02-27T18:23:03.389Z,29.82
2019-02-27T18:25:30.927Z,31.87
2019-02-27T18:27:59.526Z,27.02
2019-02-27T18:30:27.587Z,35.15
2019-02-27T18:32:55.202Z,26.40
2019-02-27T18:35:22.701Z,28.30
2019-02-27T18:37:53.682Z,36.30
2019-02-27T18:40:19.600Z,33.20
2019-02-27T18:42:47.138Z,29.65
2019-02-27T18:45:16.141Z,35.23
2019-02-27T18:47:43.807Z,24.50
2019-02-27T18:50:12.191Z,38.30
2019-02-27T18:52:40.094Z,32.37
2019-02-27T18:55:08.388Z,26.97
2019-02-27T18:57:35.929Z,35.67
2019-02-27T19:00:05.141Z,36.07
2019-02-27T19:02:32.566Z,26.57
2019-02-27T19:05:00.056Z,32.70
2019-02-27T19:07:28.100Z,34.50
2019-02-27T19:09:55.588Z,28.37
2019-02-27T19:12:28.347Z,37.27
2019-02-27T19:14:52.565Z,41.07
2019-02-27T19:17:20.153Z,31.33
2019-02-27T19:19:48.924Z,33.10
2019-02-27T19:22:16.695Z,31.17
2019-02-27T19:24:44.208Z,33.23
2019-02-27T19:27:11.745Z,30.57
2019-02-27T19:29:39.310Z,36.07
2019-02-27T19:32:06.800Z,30.93
2019-02-27T19:34:34.343Z,36.00
2019-02-27T19:37:02.587Z,29.83
2019-02-27T19:39:31.343Z,35.07
2019-02-27T19:41:58.893Z,31.50
2019-02-27T19:44:29.256Z,27.13
2019-02-27T19:46:56.868Z,26.33
2019-02-27T19:49:24.432Z,29.50
2019-02-27T19:51:54.567Z,29.63
2019-02-27T19:54:21.318Z,30.93
2019-02-27T19:56:48.863Z,29.83
2019-02-27T19:59:16.517Z,36.00
2019-02-27T20:01:48.407Z,28.70
2019-02-27T20:04:13.760Z,27.77
2019-02-27T20:06:41.258Z,27.77
2019-02-27T20:09:09.173Z,31.67
2019-02-27T20:11:40.063Z,28.90
2019-02-27T20:14:06.946Z,42.50
2019-02-27T20:16:34.534Z,29.03
2019-02-27T20:19:02.085Z,29.37
2019-02-27T20:21:30.882Z,33.67
2019-02-27T20:24:01.430Z,35.73
2019-02-27T20:26:27.880Z,30.67
2019-02-27T20:28:56.435Z,34.80
2019-02-27T20:31:24.066Z,29.33
2019-02-27T20:33:51.697Z,28.53
2019-02-27T20:36:19.282Z,30.00
2019-02-27T20:38:47.492Z,30.57
2019-02-27T20:41:16.595Z,31.33
2019-02-27T20:43:44.166Z,29.97
2019-02-27T20:46:14.781Z,25.47
2019-02-27T20:48:41.376Z,35.47
2019-02-27T20:51:09.170Z,31.53
2019-02-27T20:53:36.795Z,30.23
2019-02-27T20:56:04.369Z,28.27
2019-02-27T20:58:31.945Z,32.80
2019-02-27T21:00:59.517Z,32.20
2019-02-27T21:03:28.067Z,33.70
2019-02-27T21:05:56.323Z,31.90
2019-02-27T21:08:23.866Z,28.33
2019-02-27T21:10:55.284Z,30.33
2019-02-27T21:13:21.082Z,28.03
2019-02-27T21:15:49.135Z,27.37
2019-02-27T21:18:16.655Z,28.10
2019-02-27T21:20:45.305Z,37.70
2019-02-27T21:23:13.879Z,28.93
2019-02-27T21:25:41.411Z,26.77
2019-02-27T21:28:09.054Z,30.90
2019-02-27T21:30:37.039Z,33.27
2019-02-27T21:33:04.590Z,29.63
2019-02-27T21:35:32.226Z,34.30
2019-02-27T21:37:59.718Z,24.30
2019-02-27T21:40:27.279Z,28.87
2019-02-27T21:42:54.826Z,27.03
2019-02-27T21:45:22.420Z,30.43
2019-02-27T21:47:51.892Z,29.37
2019-02-27T21:50:19.304Z,33.47
2019-02-27T21:52:46.969Z,38.47
2019-02-27T21:55:14.821Z,31.03
2019-02-27T21:57:42.781Z,24.00
2019-02-27T22:00:15.532Z,27.93
2019-02-27T22:02:44.271Z,28.47
2019-02-27T22:05:15.282Z,24.77
2019-02-27T22:07:41.576Z,27.33
2019-02-27T22:10:10.488Z,25.50
2019-02-27T22:12:38.206Z,26.07
2019-02-27T22:15:07.445Z,29.47
2019-02-27T22:17:36.903Z,26.10
2019-02-27T22:20:05.865Z,28.87
2019-02-27T22:22:52.883Z,36.97
2019-02-27T22:25:20.767Z,32.43
2019-02-27T22:27:48.295Z,30.97
2019-02-27T22:30:16.610Z,35.00
2019-02-27T22:32:47.628Z,32.07
2019-02-27T22:35:13.908Z,31.47
2019-02-27T22:37:41.878Z,28.17
2019-02-27T22:40:11.751Z,26.80
2019-02-27T22:42:40.967Z,32.37
2019-02-27T22:45:09.988Z,29.87
2019-02-27T22:47:37.509Z,28.10
2019-02-27T22:50:06.943Z,26.03
2019-02-27T22:52:34.924Z,23.00
2019-02-27T22:55:02.473Z,26.03
2019-02-27T22:57:30.024Z,26.33
2019-02-27T22:59:57.741Z,24.50
2019-02-27T23:02:25.461Z,18.70
2019-02-27T23:04:53.373Z,20.47
2019-02-27T23:07:21.456Z,16.80
2019-02-27T23:09:49.550Z,20.10
2019-02-27T23:12:17.180Z,21.50
2019-02-27T23:14:44.714Z,27.50
2019-02-27T23:17:12.324Z,20.20
2019-02-27T23:19:39.918Z,27.77
2019-02-27T23:22:08.352Z,23.70
2019-02-27T23:24:35.905Z,25.30
2019-02-27T23:27:03.479Z,30.73
2019-02-27T23:29:30.982Z,31.60
2019-02-27T23:31:58.484Z,33.20
2019-02-27T23:34:26.022Z,32.40
2019-02-27T23:36:55.873Z,37.47
2019-02-27T23:39:23.067Z,32.90
2019-02-27T23:41:50.595Z,33.93
2019-02-27T23:44:18.235Z,27.33
2019-02-27T23:46:49.764Z,33.53
2019-02-27T23:49:15.026Z,30.03
2019-02-27T23:51:42.814Z,24.43
2019-02-27T23:54:10.302Z,28.53
2019-02-27T23:56:38.301Z,21.27
2019-02-27T23:59:05.872Z,29.13
